Time;durP1;ratioP1;P1;durP2;ratioP2;P2;SDS_P1;SDS_P2;PMS_P1;PMS_P2;Temp;Humidity;BMP_temperature;BMP_pressure;BME280_temperature;BME280_humidity;BME280_pressure;Samples;Min_cycle;Max_cycle;Signal;HPM_P1;HPM_P2
2023/11/26 00:02:12;;;;;;;;;9.00;6.00;;;;;22.38;37.39;101856.34;4957549;28;45303;-73
2023/11/26 00:04:38;;;;;;;;;10.33;7.00;;;;;22.35;37.23;101846.09;4957301;28;45266;-74
2023/11/26 00:07:03;;;;;;;;;6.00;5.00;;;;;22.38;36.89;101861.66;4957202;28;45294;-72
2023/11/26 00:09:28;;;;;;;;;7.00;6.00;;;;;22.29;37.37;101843.06;4956936;28;45410;-73
2023/11/26 00:11:54;;;;;;;;;4.67;4.67;;;;;22.38;36.79;101851.03;4957426;28;45453;-73
2023/11/26 00:14:20;;;;;;;;;5.33;5.33;;;;;22.36;37.28;101847.72;4957354;28;45383;-74
2023/11/26 00:16:45;;;;;;;;;5.33;5.33;;;;;22.36;37.24;101856.53;4957015;28;46115;-74
2023/11/26 00:19:11;;;;;;;;;6.00;4.67;;;;;22.35;37.29;101852.19;4957219;28;45316;-73
2023/11/26 00:21:37;;;;;;;;;4.67;4.67;;;;;22.36;36.77;101853.88;4957132;28;45277;-73
2023/11/26 00:24:03;;;;;;;;;6.00;4.67;;;;;22.35;37.35;101851.38;4955193;28;48821;-73
2023/11/26 00:26:28;;;;;;;;;2.33;2.00;;;;;22.33;37.05;101848.88;4957014;28;47892;-74
2023/11/26 00:28:54;;;;;;;;;7.33;5.00;;;;;22.35;37.45;101854.84;4957017;28;45394;-74
2023/11/26 00:31:24;;;;;;;;;5.00;5.00;;;;;22.33;36.86;101850.72;4957216;28;45497;-73
2023/11/26 00:33:50;;;;;;;;;4.67;4.67;;;;;22.20;36.97;101830.75;4957107;28;45540;-73
2023/11/26 00:36:16;;;;;;;;;6.00;6.00;;;;;22.34;37.28;101847.06;4956757;28;45397;-74
2023/11/26 00:38:42;;;;;;;;;5.33;5.33;;;;;22.23;37.49;101835.75;4956473;28;45341;-74
2023/11/26 00:41:08;;;;;;;;;6.33;6.00;;;;;22.31;37.68;101850.84;4957017;28;45359;-73
2023/11/26 00:43:33;;;;;;;;;5.00;5.00;;;;;22.32;37.29;101843.75;4956662;28;45436;-73
2023/11/26 00:45:58;;;;;;;;;5.33;5.33;;;;;22.30;37.02;101849.22;4956733;28;46395;-73
2023/11/26 00:48:24;;;;;;;;;6.00;4.33;;;;;22.26;37.42;101846.03;4956501;28;45378;-74
2023/11/26 00:50:49;;;;;;;;;10.33;5.67;;;;;22.28;37.30;101852.00;4957028;28;45459;-73
2023/11/26 00:53:15;;;;;;;;;7.00;5.67;;;;;22.29;37.44;101853.69;4955443;28;45425;-73
2023/11/26 00:55:40;;;;;;;;;5.00;5.00;;;;;22.28;37.54;101849.34;4956639;28;45444;-74
2023/11/26 00:58:05;;;;;;;;;5.00;5.00;;;;;22.25;37.29;101852.31;4956811;28;45365;-74
2023/11/26 01:00:32;;;;;;;;;5.33;5.33;;;;;22.28;37.45;101852.00;4956838;28;45397;-73
2023/11/26 01:02:57;;;;;;;;;9.67;5.00;;;;;22.28;36.95;101853.81;4957716;28;45533;-74
2023/11/26 01:05:22;;;;;;;;;5.33;5.00;;;;;22.28;37.11;101853.81;4959869;28;47573;-75
2023/11/26 01:07:48;;;;;;;;;7.00;4.33;;;;;22.24;37.09;101844.53;4959760;28;45425;-75
2023/11/26 01:10:13;;;;;;;;;6.33;4.00;;;;;22.27;37.41;101849.53;4960203;28;45459;-74
2023/11/26 01:12:38;;;;;;;;;6.00;5.00;;;;;22.26;37.05;101851.34;4960123;28;45470;-74
2023/11/26 01:15:06;;;;;;;;;6.67;5.67;;;;;22.27;37.07;101855.66;4960035;28;46984;-73
2023/11/26 01:17:32;;;;;;;;;9.33;6.00;;;;;22.27;37.37;101857.47;4959897;28;45378;-74
2023/11/26 01:19:57;;;;;;;;;4.00;4.00;;;;;21.80;37.36;101786.13;4960132;28;45342;-74
2023/11/26 01:22:24;;;;;;;;;6.67;5.00;;;;;22.25;37.27;101857.63;4959527;28;45382;-74
2023/11/26 01:24:50;;;;;;;;;7.67;5.67;;;;;22.25;37.46;101847.00;4959709;28;46051;-74
2023/11/26 01:27:15;;;;;;;;;6.00;5.00;;;;;22.25;37.43;101856.81;4959567;28;45385;-73
2023/11/26 01:29:40;;;;;;;;;5.00;5.00;;;;;22.24;37.14;101857.78;4959662;28;45370;-74
2023/11/26 01:32:06;;;;;;;;;6.00;5.67;;;;;22.23;37.17;101850.81;4959338;28;54929;-73
2023/11/26 01:34:31;;;;;;;;;8.00;6.00;;;;;22.17;37.29;101855.75;4959369;28;47000;-73
2023/11/26 01:36:57;;;;;;;;;8.00;7.00;;;;;22.03;37.58;101833.31;4959164;28;45254;-74
2023/11/26 01:39:22;;;;;;;;;5.00;4.00;;;;;22.22;37.56;101857.13;4959608;28;45486;-74
2023/11/26 01:41:47;;;;;;;;;5.00;5.00;;;;;22.23;37.58;101864.06;4959390;28;47175;-73
2023/11/26 01:44:13;;;;;;;;;5.33;5.33;;;;;22.11;37.04;101847.59;4959414;28;45430;-73
2023/11/26 01:46:38;;;;;;;;;6.00;6.00;;;;;21.82;37.25;101799.19;4959286;28;45344;-72
2023/11/26 01:49:04;;;;;;;;;6.00;4.67;;;;;22.21;37.08;101858.94;4959452;28;45484;-73
2023/11/26 01:51:31;;;;;;;;;9.00;8.00;;;;;22.23;37.30;101866.72;4959122;28;45306;-73
2023/11/26 01:53:57;;;;;;;;;5.67;5.00;;;;;22.20;37.27;101859.91;4959353;28;46150;-72
2023/11/26 01:56:23;;;;;;;;;7.67;6.33;;;;;22.24;36.95;101863.09;4959096;28;45318;-73
2023/11/26 01:58:48;;;;;;;;;6.00;5.00;;;;;22.13;37.32;101857.06;4959431;28;45476;-72
2023/11/26 02:01:18;;;;;;;;;7.00;5.00;;;;;22.24;37.44;101868.38;4959195;28;45408;-74
2023/11/26 02:03:43;;;;;;;;;6.00;6.00;;;;;21.91;37.28;101818.66;4959070;28;46220;-73
2023/11/26 02:06:08;;;;;;;;;7.33;4.00;;;;;22.22;37.34;101865.06;4958659;28;45494;-74
2023/11/26 02:08:34;;;;;;;;;6.33;5.00;;;;;22.22;37.11;101865.06;4959215;28;45239;-74
2023/11/26 02:10:59;;;;;;;;;4.00;4.00;;;;;22.19;37.51;101855.59;4959200;28;45366;-73
2023/11/26 02:13:25;;;;;;;;;6.00;6.00;;;;;22.17;37.51;101861.03;4958873;28;46162;-74
2023/11/26 02:15:51;;;;;;;;;6.67;6.00;;;;;22.12;36.96;101849.28;4959062;28;45275;-73
2023/11/26 02:18:19;;;;;;;;;6.67;6.67;;;;;22.22;37.07;101878.31;4959166;28;45351;-73
2023/11/26 02:20:44;;;;;;;;;6.67;6.00;;;;;22.17;37.36;101871.66;4957325;28;45446;-74
2023/11/26 02:23:10;;;;;;;;;4.67;4.67;;;;;22.11;37.25;101852.91;4958741;28;45464;-73
2023/11/26 02:25:35;;;;;;;;;5.00;4.00;;;;;22.20;37.12;101878.47;4958584;28;46220;-74
2023/11/26 02:28:00;;;;;;;;;4.67;3.67;;;;;22.20;36.93;101872.34;4959009;28;45411;-73
2023/11/26 02:30:26;;;;;;;;;6.33;5.67;;;;;22.14;37.17;101869.34;4958872;28;45247;-73
2023/11/26 02:32:52;;;;;;;;;7.33;6.00;;;;;22.11;36.97;101864.34;4958595;28;46779;-74
2023/11/26 02:35:18;;;;;;;;;5.00;5.00;;;;;22.20;37.34;101875.00;4958429;28;45378;-74
2023/11/26 02:37:45;;;;;;;;;7.00;5.33;;;;;22.04;37.35;101847.41;4958846;28;45263;-73
2023/11/26 02:40:10;;;;;;;;;7.33;5.00;;;;;22.18;36.99;101862.72;4958650;28;45270;-74
2023/11/26 02:42:36;;;;;;;;;4.00;4.00;;;;;22.16;37.59;101861.22;4958478;28;45465;-73
2023/11/26 02:45:03;;;;;;;;;7.33;5.00;;;;;22.16;37.21;101856.75;4958381;28;45491;-73
2023/11/26 02:47:29;;;;;;;;;5.00;5.00;;;;;22.06;37.66;101838.31;4958509;28;45452;-73
2023/11/26 02:49:54;;;;;;;;;9.33;6.00;;;;;22.14;37.15;101856.09;4958111;28;45349;-73
2023/11/26 02:52:19;;;;;;;;;7.67;6.00;;;;;22.04;37.16;101842.09;4958133;28;46173;-74
2023/11/26 02:54:45;;;;;;;;;6.33;5.67;;;;;22.17;37.35;101855.75;4958421;28;45465;-73
2023/11/26 02:57:10;;;;;;;;;8.33;6.67;;;;;22.17;37.18;101854.94;4958011;28;51589;-73
2023/11/26 02:59:36;;;;;;;;;3.33;2.67;;;;;22.04;37.30;101837.59;4958493;28;45451;-74
2023/11/26 03:02:02;;;;;;;;;5.33;5.33;;;;;22.01;37.45;101831.81;4958269;28;45920;-74
2023/11/26 03:04:27;;;;;;;;;9.33;6.00;;;;;22.07;37.09;101839.13;4957789;28;45551;-74
2023/11/26 03:06:52;;;;;;;;;6.33;6.33;;;;;22.03;37.41;101833.31;4958242;28;45393;-74
2023/11/26 03:14:45;;;;;;;;;5.33;5.00;;;;;22.09;37.17;101839.81;4958053;28;45363;-73
2023/11/26 03:17:13;;;;;;;;;5.67;4.33;;;;;22.09;37.38;101826.56;4957909;28;45345;-73
2023/11/26 03:19:39;;;;;;;;;8.00;6.67;;;;;22.05;36.98;101823.38;4958094;28;45365;-73
2023/11/26 03:22:09;;;;;;;;;4.67;4.33;;;;;22.16;36.91;101840.00;4957923;28;46222;-73
2023/11/26 03:24:35;;;;;;;;;6.00;6.00;;;;;22.10;37.17;101830.84;4958055;28;45782;-73
2023/11/26 03:27:00;;;;;;;;;5.33;5.33;;;;;22.16;37.31;101837.34;4957364;28;45374;-73
2023/11/26 03:29:25;;;;;;;;;8.00;5.00;;;;;22.13;36.88;101835.84;4958076;28;45563;-73
2023/11/26 03:31:53;;;;;;;;;5.33;5.00;;;;;22.14;36.94;101834.88;4957767;28;45361;-73
2023/11/26 03:34:18;;;;;;;;;5.33;5.33;;;;;22.15;37.42;101838.34;4957886;28;45361;-74
2023/11/26 03:36:43;;;;;;;;;8.33;6.33;;;;;22.14;37.08;101831.38;4957923;28;45350;-73
2023/11/26 03:39:09;;;;;;;;;6.00;6.00;;;;;22.06;37.05;101822.41;4957949;28;45599;-73
2023/11/26 03:41:34;;;;;;;;;6.33;5.67;;;;;21.82;37.33;101778.84;4957623;28;47302;-73
2023/11/26 03:43:59;;;;;;;;;8.00;5.00;;;;;22.12;37.36;101826.22;4957731;28;45364;-73
2023/11/26 03:46:26;;;;;;;;;5.00;4.00;;;;;22.12;36.88;101831.53;4957200;28;45408;-73
2023/11/26 03:48:52;;;;;;;;;6.33;5.00;;;;;22.13;36.97;101832.38;4957539;28;45968;-73
2023/11/26 03:51:20;;;;;;;;;6.33;6.33;;;;;22.03;37.00;101814.75;4957231;28;46966;-74
2023/11/26 03:53:45;;;;;;;;;1.67;1.67;;;;;22.03;37.18;101813.94;4957576;28;45381;-73
2023/11/26 03:56:11;;;;;;;;;7.00;5.00;;;;;22.11;37.44;101821.09;4957597;28;45349;-73
2023/11/26 03:58:38;;;;;;;;;6.33;5.00;;;;;22.01;36.92;101803.50;4956907;28;56785;-73
2023/11/26 04:01:03;;;;;;;;;7.00;7.00;;;;;22.01;37.34;101808.81;4956973;28;46168;-74
2023/11/26 04:03:29;;;;;;;;;7.00;6.00;;;;;22.10;37.45;101824.72;4957206;28;45371;-74
2023/11/26 04:05:54;;;;;;;;;6.00;4.67;;;;;22.11;37.10;101829.03;4957486;28;45397;-73
2023/11/26 04:08:20;;;;;;;;;6.67;5.67;;;;;22.08;36.98;101819.59;4957377;28;45354;-74
2023/11/26 04:10:45;;;;;;;;;3.67;3.67;;;;;22.04;36.99;101812.94;4956885;28;57950;-74
2023/11/26 04:13:10;;;;;;;;;7.00;5.67;;;;;22.09;37.57;101823.91;4957313;28;45249;-74
2023/11/26 04:15:43;;;;;;;;;7.00;7.00;;;;;22.02;36.94;101805.16;4957113;28;45339;-74
2023/11/26 04:18:09;;;;;;;;;6.00;6.00;;;;;22.10;36.80;101816.78;4957363;28;45343;-73
2023/11/26 04:20:34;;;;;;;;;7.00;6.00;;;;;22.11;37.44;101818.44;4957030;28;46045;-74
2023/11/26 04:22:59;;;;;;;;;7.00;7.00;;;;;22.05;36.79;101815.44;4956246;28;65714;-73
2023/11/26 04:25:25;;;;;;;;;5.33;5.33;;;;;22.10;37.08;101820.25;4956618;28;55755;-74
2023/11/26 04:27:50;;;;;;;;;6.67;5.33;;;;;22.10;37.37;101816.78;4956699;28;52801;-73
2023/11/26 04:30:17;;;;;;;;;6.00;6.00;;;;;22.10;37.49;101814.13;4956578;28;45982;-73
2023/11/26 04:32:42;;;;;;;;;6.33;6.33;;;;;22.00;37.27;101804.47;4956995;28;45401;-74
2023/11/26 04:35:08;;;;;;;;;6.33;6.33;;;;;22.07;37.36;101808.16;4956923;28;45361;-73
2023/11/26 04:37:34;;;;;;;;;6.00;6.00;;;;;22.09;36.88;101809.81;4955889;28;45393;-74
2023/11/26 04:39:59;;;;;;;;;9.00;6.00;;;;;22.07;37.29;101810.81;4956734;28;47032;-74
2023/11/26 04:42:25;;;;;;;;;5.00;3.00;;;;;22.07;37.07;101807.31;4956708;28;46024;-74
2023/11/26 04:44:51;;;;;;;;;9.00;6.33;;;;;22.08;37.38;101806.34;4956509;28;45319;-74
2023/11/26 04:47:16;;;;;;;;;6.67;6.67;;;;;22.07;36.72;101794.06;4956610;28;45657;-73
2023/11/26 04:49:42;;;;;;;;;8.33;6.00;;;;;22.07;37.18;101794.91;4956638;28;46113;-73
2023/11/26 04:52:08;;;;;;;;;6.00;6.00;;;;;21.95;36.79;101775.81;4956616;28;45388;-73
2023/11/26 04:54:34;;;;;;;;;6.00;6.00;;;;;22.07;36.78;101794.06;4956779;28;45366;-73
2023/11/26 04:56:59;;;;;;;;;6.00;5.33;;;;;22.07;37.00;101786.94;4956875;28;45303;-74
2023/11/26 04:59:25;;;;;;;;;8.00;7.00;;;;;21.66;37.37;101729.22;4956333;28;45378;-74
2023/11/26 05:01:55;;;;;;;;;6.67;6.00;;;;;22.04;36.97;101794.41;4956616;28;45306;-74
2023/11/26 05:04:20;;;;;;;;;5.67;5.67;;;;;22.06;37.03;101798.56;4956559;28;45422;-74
2023/11/26 05:06:46;;;;;;;;;4.67;4.67;;;;;21.99;37.26;101788.75;4956497;28;45375;-74
2023/11/26 05:09:12;;;;;;;;;7.00;5.33;;;;;22.03;36.78;101806.81;4954515;28;67773;-74
2023/11/26 05:11:40;;;;;;;;;7.00;6.00;;;;;22.06;36.89;101803.84;4956394;28;45413;-74
2023/11/26 05:14:06;;;;;;;;;7.33;7.00;;;;;22.02;36.64;101802.50;4956154;28;45442;-74
2023/11/26 05:16:31;;;;;;;;;7.00;6.00;;;;;22.07;37.38;101802.00;4956476;28;45299;-74
2023/11/26 05:18:57;;;;;;;;;4.33;4.33;;;;;22.00;37.29;101788.56;4956258;28;47252;-74
2023/11/26 05:21:22;;;;;;;;;5.33;5.33;;;;;22.06;36.76;101798.56;4956389;28;45354;-74
2023/11/26 05:23:48;;;;;;;;;5.00;5.00;;;;;22.04;36.89;101799.69;4956349;28;45433;-73
2023/11/26 05:26:14;;;;;;;;;5.33;4.67;;;;;22.06;37.12;101805.66;4956391;28;45370;-74
2023/11/26 05:28:40;;;;;;;;;8.50;6.00;;;;;21.97;37.43;101794.19;4955881;28;47124;-73
2023/11/26 05:31:05;;;;;;;;;8.67;6.33;;;;;22.06;37.24;101803.03;4954865;28;45392;-74
2023/11/26 05:33:31;;;;;;;;;5.67;4.00;;;;;22.05;37.31;101809.28;4956317;28;45397;-74
2023/11/26 05:35:56;;;;;;;;;7.00;6.00;;;;;21.92;37.14;101783.22;4956289;28;45349;-74
2023/11/26 05:38:22;;;;;;;;;6.00;4.00;;;;;22.05;36.81;101802.19;4956039;28;45330;-74
2023/11/26 05:40:47;;;;;;;;;5.33;5.00;;;;;22.05;36.75;101806.66;4956274;28;45367;-74
2023/11/26 05:43:13;;;;;;;;;6.33;5.33;;;;;21.99;36.65;101794.03;4955828;28;45408;-74
2023/11/26 05:45:38;;;;;;;;;6.00;6.00;;;;;21.99;36.86;101791.38;4955979;28;45402;-74
2023/11/26 05:48:04;;;;;;;;;5.00;5.00;;;;;21.98;37.18;101792.38;4955356;28;59747;-74
2023/11/26 05:50:29;;;;;;;;;6.33;5.67;;;;;22.03;36.91;101793.56;4957832;28;45857;-74
2023/11/26 05:52:56;;;;;;;;;5.33;5.33;;;;;22.04;36.76;101794.41;4959291;28;45227;-74
2023/11/26 05:55:22;;;;;;;;;8.00;5.00;;;;;22.03;36.82;101792.72;4959454;28;45701;-74
2023/11/26 05:57:48;;;;;;;;;5.67;5.67;;;;;22.02;37.24;101796.34;4958680;28;46112;-74
2023/11/26 06:00:14;;;;;;;;;7.00;6.00;;;;;22.03;36.83;101790.06;4959401;28;45318;-74
2023/11/26 06:02:40;;;;;;;;;5.00;5.00;;;;;21.75;37.29;101751.31;4959330;28;45338;-74
2023/11/26 06:05:07;;;;;;;;;7.00;7.00;;;;;22.03;36.82;101792.72;4959069;28;45357;-74
2023/11/26 06:07:32;;;;;;;;;6.00;6.00;;;;;21.71;36.83;101742.84;4958887;28;46177;-74
2023/11/26 06:09:58;;;;;;;;;5.00;4.00;;;;;21.99;37.22;101786.91;4958993;28;45303;-74
2023/11/26 06:12:23;;;;;;;;;5.67;5.67;;;;;22.02;37.24;101791.06;4958430;28;49182;-74
2023/11/26 06:14:48;;;;;;;;;5.33;5.33;;;;;22.02;37.18;101789.25;4959216;28;45349;-74
2023/11/26 06:17:14;;;;;;;;;10.00;6.67;;;;;22.01;37.03;101790.25;4958937;28;45323;-73
2023/11/26 06:19:39;;;;;;;;;5.00;5.00;;;;;21.95;36.70;101783.75;4957651;28;45497;-74
2023/11/26 06:22:04;;;;;;;;;4.33;4.33;;;;;22.02;37.02;101786.59;4959024;28;45442;-74
2023/11/26 06:24:31;;;;;;;;;6.50;6.50;;;;;22.02;37.13;101797.19;4958807;28;47861;-73
2023/11/26 06:26:57;;;;;;;;;5.67;5.67;;;;;22.03;36.62;101800.69;4958343;28;46038;-73
2023/11/26 06:29:22;;;;;;;;;8.33;6.00;;;;;22.02;36.47;101789.25;4958633;28;45274;-74
2023/11/26 06:31:48;;;;;;;;;6.67;6.00;;;;;22.03;37.03;101798.88;4958919;28;45334;-74
2023/11/26 06:34:13;;;;;;;;;6.67;6.00;;;;;22.00;36.49;101793.88;4958867;28;45422;-73
2023/11/26 06:36:38;;;;;;;;;6.67;5.67;;;;;21.93;37.26;101788.38;4958611;28;45482;-74
2023/11/26 06:39:08;;;;;;;;;6.00;6.00;;;;;22.02;36.67;101799.84;4958431;28;52583;-73
2023/11/26 06:41:41;;;;;;;;;7.00;6.33;;;;;21.95;36.60;101783.75;4958458;28;45433;-74
2023/11/26 06:44:06;;;;;;;;;7.33;5.67;;;;;22.02;37.00;101804.31;4958434;28;45507;-74
2023/11/26 06:46:32;;;;;;;;;10.00;6.00;;;;;22.01;37.23;101803.50;4958134;28;46109;-74
2023/11/26 06:48:58;;;;;;;;;9.00;5.00;;;;;22.01;37.15;101810.59;4958253;28;45428;-73
2023/11/26 06:51:23;;;;;;;;;5.67;5.67;;;;;21.99;36.99;101802.78;4958676;28;45373;-73
2023/11/26 06:53:52;;;;;;;;;7.33;7.33;;;;;21.98;36.75;101793.22;4958555;28;45334;-74
2023/11/26 06:56:18;;;;;;;;;6.00;6.00;;;;;21.92;36.71;101783.22;4957836;28;46228;-74
2023/11/26 06:58:44;;;;;;;;;6.00;6.00;;;;;21.99;37.26;101794.84;4958284;28;45297;-74
2023/11/26 07:01:11;;;;;;;;;8.00;6.00;;;;;22.00;36.77;101798.34;4957506;28;45407;-74
2023/11/26 07:03:37;;;;;;;;;5.00;5.00;;;;;21.96;37.10;101798.66;4958263;28;45405;-74
2023/11/26 07:06:10;;;;;;;;;9.00;6.67;;;;;21.98;37.16;101803.81;4957949;28;47165;-74
2023/11/26 07:08:37;;;;;;;;;7.00;4.67;;;;;21.96;37.29;101798.66;4958099;28;45370;-74
2023/11/26 07:11:06;;;;;;;;;6.00;6.00;;;;;21.99;36.58;101791.38;4957877;28;45325;-74
2023/11/26 07:13:33;;;;;;;;;6.33;5.00;;;;;21.93;37.23;101784.91;4958083;28;45267;-73
2023/11/26 07:15:58;;;;;;;;;9.00;6.67;;;;;21.98;36.96;101787.06;4957869;28;46308;-74
2023/11/26 07:18:24;;;;;;;;;7.33;5.00;;;;;21.95;36.76;101782.91;4957900;28;45437;-74
2023/11/26 07:20:49;;;;;;;;;5.00;5.00;;;;;21.80;36.87;101754.31;4958345;28;45558;-74
2023/11/26 07:23:16;;;;;;;;;6.33;5.33;;;;;21.83;36.83;101759.28;4958050;28;45487;-74
2023/11/26 07:25:41;;;;;;;;;5.00;5.00;;;;;21.96;37.00;101774.78;4957505;28;46044;-73
2023/11/26 07:28:11;;;;;;;;;4.00;4.00;;;;;21.96;36.99;101776.63;4957645;28;45512;-74
2023/11/26 07:30:40;;;;;;;;;6.67;5.67;;;;;21.96;37.35;101788.03;4958024;28;45236;-73
2023/11/26 07:33:06;;;;;;;;;6.00;4.67;;;;;21.96;37.14;101784.59;4957776;28;45351;-74
2023/11/26 07:35:31;;;;;;;;;6.00;6.00;;;;;21.88;37.08;101769.47;4957541;28;45866;-73
2023/11/26 07:37:57;;;;;;;;;6.33;6.00;;;;;21.96;36.66;101782.75;4957550;28;45302;-74
2023/11/26 07:40:22;;;;;;;;;8.00;6.33;;;;;21.83;36.66;101767.25;4957407;28;45338;-74
2023/11/26 07:42:49;;;;;;;;;5.00;5.00;;;;;21.85;36.81;101775.03;4956597;28;45508;-74
2023/11/26 07:45:15;;;;;;;;;5.00;5.00;;;;;21.95;36.92;101794.34;4957454;28;46956;-73
2023/11/26 07:47:40;;;;;;;;;5.00;5.00;;;;;21.90;36.94;101794.00;4957170;28;45371;-73
2023/11/26 07:50:06;;;;;;;;;4.67;4.67;;;;;21.85;36.61;101791.78;4957629;28;45320;-74
2023/11/26 07:52:34;;;;;;;;;10.33;7.33;;;;;21.99;36.46;101807.28;4957533;28;45615;-73
2023/11/26 07:55:01;;;;;;;;;5.00;5.00;;;;;21.98;36.59;101802.97;4957464;28;45612;-74
2023/11/26 07:57:27;;;;;;;;;7.00;6.33;;;;;21.66;36.43;101758.38;4957285;28;45306;-74
2023/11/26 07:59:52;;;;;;;;;7.00;7.00;;;;;21.96;36.49;101808.44;4957391;28;45462;-74
2023/11/26 08:02:18;;;;;;;;;5.25;5.25;;;;;21.91;37.33;101806.22;4957385;28;45357;-74
2023/11/26 08:04:44;;;;;;;;;6.33;5.00;;;;;21.98;37.08;101814.41;4957139;28;46530;-74
2023/11/26 08:07:09;;;;;;;;;7.00;5.00;;;;;21.98;36.75;101818.88;4956984;28;45417;-74
2023/11/26 08:09:36;;;;;;;;;8.00;5.00;;;;;21.98;36.60;101818.88;4957210;28;45406;-74
2023/11/26 08:12:03;;;;;;;;;7.67;6.67;;;;;21.81;37.06;101797.53;4957201;28;45485;-74
2023/11/26 08:14:28;;;;;;;;;8.00;6.00;;;;;21.85;36.99;101804.19;4957034;28;47216;-74
2023/11/26 08:16:57;;;;;;;;;6.00;6.00;;;;;21.94;36.93;101816.53;4957116;28;45375;-74
2023/11/26 08:19:24;;;;;;;;;4.00;4.00;;;;;21.96;37.16;101821.69;4955969;28;45352;-74
2023/11/26 08:21:49;;;;;;;;;7.00;5.00;;;;;21.84;36.88;101807.81;4956694;28;45325;-74
2023/11/26 08:24:18;;;;;;;;;9.00;6.00;;;;;21.62;37.17;101765.78;4956844;28;45394;-73
2023/11/26 08:26:46;;;;;;;;;6.00;6.00;;;;;21.89;37.14;101805.56;4956971;28;45372;-73
2023/11/26 08:29:13;;;;;;;;;5.67;4.00;;;;;21.95;37.10;101806.75;4956947;28;45460;-74
2023/11/26 08:31:42;;;;;;;;;7.33;6.67;;;;;21.88;37.06;101790.66;4956974;28;45279;-73
2023/11/26 08:34:08;;;;;;;;;6.00;6.00;;;;;21.77;36.78;101769.69;4956692;28;46051;-74
2023/11/26 08:36:35;;;;;;;;;6.33;6.33;;;;;21.84;36.70;101779.50;4956370;28;45415;-74
2023/11/26 08:39:00;;;;;;;;;7.33;6.00;;;;;21.81;37.27;101785.13;4957040;28;45314;-73
2023/11/26 08:41:26;;;;;;;;;5.33;5.33;;;;;21.85;36.64;101805.03;4956840;28;45298;-74
2023/11/26 08:43:54;;;;;;;;;7.00;6.00;;;;;21.83;36.98;101801.69;4956664;28;46011;-74
2023/11/26 08:46:21;;;;;;;;;8.33;5.67;;;;;21.88;37.08;101800.44;4956525;28;45358;-74
2023/11/26 08:48:46;;;;;;;;;2.33;2.33;;;;;21.81;37.15;101798.34;4956586;28;45343;-73
2023/11/26 08:51:11;;;;;;;;;4.67;4.67;;;;;21.92;36.66;101820.31;4956342;28;45334;-73
2023/11/26 08:53:38;;;;;;;;;6.00;5.00;;;;;21.81;37.13;101792.22;4956615;28;47104;-74
2023/11/26 08:56:03;;;;;;;;;7.00;5.33;;;;;21.94;37.04;101818.34;4956694;28;45351;-74
2023/11/26 08:58:29;;;;;;;;;7.00;7.00;;;;;21.90;36.84;101812.53;4955350;28;45322;-73
2023/11/26 09:00:56;;;;;;;;;6.67;6.67;;;;;21.85;36.56;101805.03;4956813;28;45286;-74
2023/11/26 09:03:22;;;;;;;;;7.33;5.67;;;;;21.95;37.21;101820.00;4956613;28;46664;-73
2023/11/26 09:05:48;;;;;;;;;5.00;5.00;;;;;21.79;37.07;101800.34;4956048;28;45387;-73
2023/11/26 09:08:14;;;;;;;;;8.00;6.00;;;;;21.90;36.98;101811.69;4956572;28;45460;-73
2023/11/26 09:10:39;;;;;;;;;6.00;6.00;;;;;21.94;36.75;101819.16;4956554;28;45464;-74
2023/11/26 09:13:04;;;;;;;;;6.00;6.00;;;;;21.94;37.04;101819.16;4956325;28;47018;-73
2023/11/26 09:15:30;;;;;;;;;6.67;6.67;;;;;21.95;36.58;101818.19;4956467;28;45422;-73
2023/11/26 09:17:55;;;;;;;;;6.33;6.33;;;;;21.94;36.77;101819.16;4956466;28;45774;-73
2023/11/26 09:20:20;;;;;;;;;7.00;7.00;;;;;21.85;36.77;101805.03;4956174;28;45459;-74
2023/11/26 09:22:48;;;;;;;;;7.67;6.00;;;;;21.95;36.94;101826.16;4956273;28;47046;-74
2023/11/26 09:25:13;;;;;;;;;4.00;4.00;;;;;21.95;37.13;101822.66;4958932;28;45307;-74
2023/11/26 09:27:40;;;;;;;;;7.50;6.50;;;;;21.88;36.55;101805.72;4959721;28;45449;-74
2023/11/26 09:30:08;;;;;;;;;8.00;8.00;;;;;21.96;37.13;101824.34;4959741;28;45526;-74
2023/11/26 09:32:34;;;;;;;;;5.67;5.67;;;;;21.95;36.64;101822.66;4959494;28;46264;-74
2023/11/26 09:34:59;;;;;;;;;6.67;6.00;;;;;21.94;36.95;101818.34;4959233;28;45600;-74
2023/11/26 09:37:25;;;;;;;;;7.00;7.00;;;;;21.89;36.64;101810.84;4959650;28;45364;-74
2023/11/26 09:39:50;;;;;;;;;7.00;6.00;;;;;21.84;36.95;101799.88;4959686;28;45573;-74
2023/11/26 09:42:21;;;;;;;;;6.00;5.33;;;;;21.94;37.28;101808.56;4959458;28;46152;-74
2023/11/26 09:44:47;;;;;;;;;6.00;6.00;;;;;21.94;37.25;101803.28;4959469;28;45322;-74
2023/11/26 09:47:14;;;;;;;;;7.33;7.00;;;;;21.88;36.70;101793.31;4959248;28;45468;-74
2023/11/26 09:49:40;;;;;;;;;8.00;6.67;;;;;21.93;36.79;101796.31;4959021;28;45435;-72
2023/11/26 09:52:05;;;;;;;;;8.50;6.50;;;;;21.95;37.29;101804.09;4959031;28;47125;-73
2023/11/26 09:54:31;;;;;;;;;4.67;4.67;;;;;21.93;37.28;101806.94;4959317;28;45441;-76
2023/11/26 09:56:59;;;;;;;;;7.33;5.33;;;;;21.96;37.48;101806.59;4958791;28;45433;-74
2023/11/26 09:59:34;;;;;;;;;5.67;5.67;;;;;21.99;37.57;101807.28;4975626;28;45413;-75
2023/11/26 10:02:07;;;;;;;;;8.67;6.00;;;;;22.00;37.64;101815.06;4978514;28;45524;-74
2023/11/26 10:04:52;;;;;;;;;6.00;5.00;;;;;22.02;37.83;101814.91;4978189;28;45518;-74
2023/11/26 10:07:31;;;;;;;;;6.75;5.50;;;;;21.99;37.77;101799.34;4978563;28;45348;-74
2023/11/26 10:10:02;;;;;;;;;7.00;6.75;;;;;22.02;37.72;101807.78;4978455;28;45393;-74
2023/11/26 10:12:28;;;;;;;;;7.67;5.00;;;;;22.00;38.21;101812.41;4978147;28;45358;-74
2023/11/26 10:15:06;;;;;;;;;8.00;5.00;;;;;21.94;38.18;101790.03;4978304;28;45297;-74
2023/11/26 10:17:31;;;;;;;;;7.33;5.33;;;;;22.03;37.93;101803.31;4978688;28;45274;-73
2023/11/26 10:20:26;;;;;;;;;4.33;4.33;;;;;22.02;37.99;101794.53;4978128;28;45457;-74
2023/11/26 10:22:52;;;;;;;;;4.00;4.00;;;;;21.98;37.86;101784.41;4990174;28;46444;-74
2023/11/26 10:25:18;;;;;;;;;6.00;5.00;;;;;21.88;38.55;101772.13;4977991;28;45298;-74
2023/11/26 10:27:43;;;;;;;;;5.67;4.67;;;;;21.95;38.51;101785.56;4978254;28;45373;-73
2023/11/26 10:30:22;;;;;;;;;5.00;5.00;;;;;22.02;38.40;101785.75;4978441;28;45313;-73
2023/11/26 10:32:55;;;;;;;;;4.00;4.00;;;;;21.88;38.64;101758.88;4977831;28;46358;-73
2023/11/26 10:35:20;;;;;;;;;5.67;5.00;;;;;22.04;38.74;101778.50;4976717;28;45317;-73
2023/11/26 10:37:47;;;;;;;;;6.00;6.00;;;;;22.03;38.96;101764.41;4978043;28;45349;-72
2023/11/26 10:40:12;;;;;;;;;7.67;5.00;;;;;22.07;38.66;101768.41;4978144;28;45520;-72
2023/11/26 10:42:39;;;;;;;;;5.00;5.00;;;;;22.04;38.53;101757.31;4977719;28;45904;-72
2023/11/26 10:45:06;;;;;;;;;6.67;5.00;;;;;22.10;38.35;101759.31;4968616;28;45448;-72
2023/11/26 10:47:35;;;;;;;;;7.00;6.00;;;;;22.10;38.85;101759.31;4949126;28;45468;-73
2023/11/26 10:50:08;;;;;;;;;4.00;4.00;;;;;22.12;38.34;101759.16;4957915;28;45417;-72
2023/11/26 10:52:42;;;;;;;;;5.33;4.67;;;;;21.98;38.82;101739.38;4961700;28;45485;-74
2023/11/26 10:55:13;;;;;;;;;5.00;5.00;;;;;22.14;38.44;101751.88;4957429;28;45443;-72
2023/11/26 10:57:39;;;;;;;;;3.00;3.00;;;;;22.17;38.94;101764.81;4957522;28;45501;-73
2023/11/26 11:00:08;;;;;;;;;8.00;4.00;;;;;22.16;38.24;101748.09;4957809;28;45624;-72
2023/11/26 11:02:36;;;;;;;;;7.00;5.00;;;;;22.16;38.74;101756.03;4957126;28;46172;-72
2023/11/26 11:05:04;;;;;;;;;5.67;5.33;;;;;22.12;38.47;101732.66;4957733;28;45481;-69
2023/11/26 11:07:31;;;;;;;;;6.67;6.33;;;;;22.22;38.64;101751.09;4957814;28;45514;-71
2023/11/26 11:10:07;;;;;;;;;6.00;6.00;;;;;22.23;38.29;101742.97;4957895;28;45384;-71
2023/11/26 11:12:47;;;;;;;;;6.00;4.67;;;;;22.21;38.68;101737.00;4957907;28;45357;-74
2023/11/26 11:15:16;;;;;;;;;6.00;5.00;;;;;21.95;38.87;101682.22;4958018;28;45255;-72
2023/11/26 11:17:42;;;;;;;;;5.67;5.00;;;;;22.30;38.56;101724.63;4957759;28;45318;-71
2023/11/26 11:20:07;;;;;;;;;6.33;6.33;;;;;22.33;38.73;101734.06;4958046;28;45379;-70
2023/11/26 11:22:38;;;;;;;;;7.00;6.00;;;;;22.30;38.42;101724.63;4957795;28;45350;-70
2023/11/26 11:25:05;;;;;;;;;6.00;6.00;;;;;22.34;38.79;101714.50;4957818;28;45516;-70
2023/11/26 11:27:58;;;;;;;;;6.33;5.00;;;;;22.35;38.74;101721.47;4957853;28;45407;-70